Time;durP1;ratioP1;P1;durP2;ratioP2;P2;SDS_P1;SDS_P2;PMS_P1;PMS_P2;Temp;Humidity;BMP_temperature;BMP_pressure;BME280_temperature;BME280_humidity;BME280_pressure;Samples;Min_cycle;Max_cycle;Signal;HPM_P1;HPM_P2
2022/08/09 00:02:16;;;;;;;;;;;;;;;-142.75;100.00;77739.75;5032084;28;20478;-65
2022/08/09 00:04:42;;;;;;;;;;;;;;;-142.75;100.00;77733.84;5032304;28;19917;-66
2022/08/09 00:07:07;;;;;;;;;;;;;;;-142.75;100.00;77739.75;5031969;28;20398;-66
2022/08/09 00:09:32;;;;;;;;;;;;;;;-142.75;100.00;77751.56;5014478;28;20363;-65
2022/08/09 00:11:57;;;;;;;;;;;;;;;-142.75;100.00;77757.47;5032172;28;20405;-65
2022/08/09 00:14:23;;;;;;;;;;;;;;;-142.75;100.00;77751.56;5014232;28;20405;-66
2022/08/09 00:16:48;;;;;;;;;;;;;;;-142.75;100.00;77761.41;5031881;28;19920;-66
2022/08/09 00:19:13;;;;;;;;;;;;;;;-142.75;100.00;77749.59;5031913;28;19920;-66
2022/08/09 00:21:39;;;;;;;;;;;;;;;-142.75;100.00;77757.47;5032044;28;19960;-66
2022/08/09 00:24:04;;;;;;;;;;;;;;;-142.75;100.00;77751.56;5032333;28;20004;-66
2022/08/09 00:26:29;;;;;;;;;;;;;;;-142.75;100.00;77747.63;5031952;28;19917;-66
2022/08/09 00:28:55;;;;;;;;;;;;;;;-142.75;100.00;77745.66;5031707;28;19948;-65
2022/08/09 00:31:21;;;;;;;;;;;;;;;-142.75;100.00;77751.56;5014323;28;19952;-66
2022/08/09 00:33:46;;;;;;;;;;;;;;;-142.75;100.00;77763.38;5031888;28;19928;-66
2022/08/09 00:36:12;;;;;;;;;;;;;;;-142.75;100.00;77757.47;5014237;28;19917;-65
2022/08/09 00:38:38;;;;;;;;;;;;;;;-142.75;100.00;77757.47;5030021;28;20007;-66
2022/08/09 00:41:03;;;;;;;;;;;;;;;-142.75;100.00;77755.50;5031917;28;19920;-66
2022/08/09 00:43:30;;;;;;;;;;;;;;;-142.75;100.00;77761.41;5014087;28;19913;-67
2022/08/09 00:45:55;;;;;;;;;;;;;;;-142.75;100.00;77759.44;5031846;28;19924;-66
2022/08/09 00:48:20;;;;;;;;;;;;;;;-142.75;100.00;77765.34;5031573;28;20363;-66
2022/08/09 00:50:45;;;;;;;;;;;;;;;-142.75;100.00;77767.31;5031924;28;19917;-65
2022/08/09 00:53:11;;;;;;;;;;;;;;;-142.75;100.00;77765.34;5031783;28;19917;-66
2022/08/09 00:55:36;;;;;;;;;;;;;;;-142.75;100.00;77759.44;5031674;28;19921;-65
2022/08/09 00:58:02;;;;;;;;;;;;;;;-142.75;100.00;77779.13;5031488;28;19919;-66
2022/08/09 01:00:27;;;;;;;;;;;;;;;-142.75;100.00;77769.28;5031687;28;19984;-65
2022/08/09 01:02:56;;;;;;;;;;;;;;;-142.75;100.00;77775.19;5031731;28;20059;-65
2022/08/09 01:05:26;;;;;;;;;;;;;;;-142.75;100.00;77781.09;5033166;28;19944;-65
2022/08/09 01:07:55;;;;;;;;;;;;;;;-142.75;100.00;77783.06;5035169;28;19920;-65
2022/08/09 01:10:29;;;;;;;;;;;;;;;-142.75;100.00;77790.94;5035393;28;20298;-65
2022/08/09 01:12:59;;;;;;;;;;;;;;;-142.75;100.00;77792.91;5017510;28;19921;-65
2022/08/09 01:15:27;;;;;;;;;;;;;;;-142.75;100.00;77802.75;5035146;28;20390;-67
2022/08/09 01:17:52;;;;;;;;;;;;;;;-142.75;100.00;77798.81;5035075;28;19913;-65
2022/08/09 01:20:23;;;;;;;;;;;;;;;-142.75;100.00;77810.63;5035155;28;19959;-66
2022/08/09 01:22:51;;;;;;;;;;;;;;;-142.75;100.00;77806.69;5017471;28;19936;-65
2022/08/09 01:25:20;;;;;;;;;;;;;;;-142.75;100.00;77810.63;5034959;28;19917;-66
2022/08/09 01:27:48;;;;;;;;;;;;;;;-142.75;100.00;77812.59;5034746;28;19967;-66
2022/08/09 01:30:14;;;;;;;;;;;;;;;-142.75;100.00;77826.38;5035164;28;20004;-65
2022/08/09 01:32:42;;;;;;;;;;;;;;;-142.75;100.00;77828.34;5034889;28;19951;-66
2022/08/09 01:35:11;;;;;;;;;;;;;;;-142.75;100.00;77822.44;5016986;28;19917;-65
2022/08/09 01:37:37;;;;;;;;;;;;;;;-142.75;100.00;77818.50;5034496;28;19917;-65
2022/08/09 01:40:05;;;;;;;;;;;;;;;-142.75;100.00;77820.47;5034823;28;19913;-65
2022/08/09 01:42:31;;;;;;;;;;;;;;;-142.75;100.00;77814.56;5016998;28;19924;-65
2022/08/09 01:44:57;;;;;;;;;;;;;;;-142.75;100.00;77814.56;5034692;28;19917;-65
2022/08/09 01:47:24;;;;;;;;;;;;;;;-142.75;100.00;77812.59;5034368;28;19913;-66
2022/08/09 01:49:49;;;;;;;;;;;;;;;-142.75;100.00;77810.63;5034659;28;19917;-65
2022/08/09 01:52:16;;;;;;;;;;;;;;;-142.75;100.00;77816.53;5016761;28;20482;-66
2022/08/09 01:54:44;;;;;;;;;;;;;;;-142.75;100.00;77828.34;5034378;28;20386;-66
2022/08/09 01:57:14;;;;;;;;;;;;;;;-142.75;100.00;77832.28;5034151;28;19913;-64
2022/08/09 01:59:41;;;;;;;;;;;;;;;-142.75;100.00;77826.38;5034402;28;20363;-65
2022/08/09 02:02:07;;;;;;;;;;;;;;;-142.75;100.00;77816.53;5034417;28;19924;-66
2022/08/09 02:04:32;;;;;;;;;;;;;;;-142.75;100.00;77814.56;5034321;28;19913;-66
2022/08/09 02:07:14;;;;;;;;;;;;;;;-142.75;100.00;77814.56;5033956;28;19924;-64
2022/08/09 02:09:48;;;;;;;;;;;;;;;-142.75;100.00;77812.59;5016513;28;19913;-65
2022/08/09 02:12:17;;;;;;;;;;;;;;;-142.75;100.00;77830.31;5016514;28;20350;-65
2022/08/09 02:14:42;;;;;;;;;;;;;;;-142.75;100.00;77842.13;5016281;28;19921;-66
2022/08/09 02:17:08;;;;;;;;;;;;;;;-142.75;100.00;77863.78;5033629;28;20260;-66
2022/08/09 02:19:33;;;;;;;;;;;;;;;-142.75;100.00;77873.63;5033985;28;20063;-65
2022/08/09 02:22:02;;;;;;;;;;;;;;;-142.75;100.00;77877.56;5034065;28;20007;-65
2022/08/09 02:24:34;;;;;;;;;;;;;;;-142.75;100.00;77873.63;5033826;28;19924;-66
2022/08/09 02:27:00;;;;;;;;;;;;;;;-142.75;100.00;77881.50;5033803;28;19967;-65
2022/08/09 02:29:28;;;;;;;;;;;;;;;-142.75;100.00;77885.44;5033980;28;20279;-65
2022/08/09 02:31:56;;;;;;;;;;;;;;;-142.75;100.00;77887.41;5033761;28;19913;-65
2022/08/09 02:34:25;;;;;;;;;;;;;;;-142.75;100.00;77897.25;5015796;28;19937;-66
2022/08/09 02:36:52;;;;;;;;;;;;;;;-142.75;100.00;77905.13;5033594;28;19967;-65
2022/08/09 02:39:20;;;;;;;;;;;;;;;-142.75;100.00;77901.19;5033679;28;19913;-65
2022/08/09 02:41:55;;;;;;;;;;;;;;;-142.75;100.00;77905.13;5033724;28;19913;-66
2022/08/09 02:44:22;;;;;;;;;;;;;;;-142.75;100.00;77916.97;5015766;28;19913;-66
2022/08/09 02:46:49;;;;;;;;;;;;;;;-142.75;100.00;77915.00;5033303;28;20286;-66
2022/08/09 02:49:16;;;;;;;;;;;;;;;-142.75;100.00;77915.00;5033535;28;20117;-65
2022/08/09 02:51:44;;;;;;;;;;;;;;;-142.75;100.00;77920.91;5015731;28;19952;-65
2022/08/09 02:54:11;;;;;;;;;;;;;;;-142.75;100.00;77942.56;5033296;28;19924;-65
2022/08/09 02:56:40;;;;;;;;;;;;;;;-142.75;100.00;77930.75;5033072;28;19917;-64
2022/08/09 02:59:06;;;;;;;;;;;;;;;-142.75;100.00;77901.19;5033261;28;19913;-66
2022/08/09 03:01:33;;;;;;;;;;;;;;;-142.75;100.00;77897.25;5033345;28;19920;-66
2022/08/09 03:03:59;;;;;;;;;;;;;;;-142.75;100.00;77905.13;5033205;28;19913;-66
2022/08/09 03:06:25;;;;;;;;;;;;;;;-142.75;100.00;77895.28;5033130;28;20279;-65
2022/08/09 03:08:51;;;;;;;;;;;;;;;-142.75;100.00;77899.22;5032876;28;19919;-67
2022/08/09 03:11:17;;;;;;;;;;;;;;;-142.75;100.00;77893.31;5033082;28;19940;-66
2022/08/09 03:13:44;;;;;;;;;;;;;;;-142.75;100.00;77885.44;5032965;28;20395;-65
2022/08/09 03:16:09;;;;;;;;;;;;;;;-142.75;100.00;77877.56;5032884;28;19913;-64
2022/08/09 03:18:35;;;;;;;;;;;;;;;-142.75;100.00;77885.44;5032752;28;19923;-66
2022/08/09 03:21:01;;;;;;;;;;;;;;;-142.75;100.00;77893.31;5032912;28;19920;-65
2022/08/09 03:23:27;;;;;;;;;;;;;;;-142.75;100.00;77903.16;5032881;28;19959;-64
2022/08/09 03:25:53;;;;;;;;;;;;;;;-142.75;100.00;77934.69;5032797;28;20331;-65
2022/08/09 03:28:18;;;;;;;;;;;;;;;-142.75;100.00;77924.84;5031945;28;19962;-65
2022/08/09 03:30:44;;;;;;;;;;;;;;;-142.75;100.00;77915.00;5032721;28;19913;-65
2022/08/09 03:33:10;;;;;;;;;;;;;;;-142.75;100.00;77895.28;5032705;28;19972;-66
2022/08/09 03:35:35;;;;;;;;;;;;;;;-142.75;100.00;77903.16;5045095;22;19953;-63
2022/08/09 03:38:01;;;;;;;;;;;;;;;-142.75;100.00;77897.25;5010809;28;20287;-63
2022/08/09 03:40:26;;;;;;;;;;;;;;;-142.75;100.00;77897.25;5012206;28;19920;-63
2022/08/09 03:42:51;;;;;;;;;;;;;;;-142.75;100.00;77901.19;5012826;28;19913;-63
2022/08/09 03:45:17;;;;;;;;;;;;;;;-142.75;100.00;77911.06;5012756;28;20007;-63
2022/08/09 03:47:42;;;;;;;;;;;;;;;-142.75;100.00;77924.84;5012492;28;19913;-63
2022/08/09 03:50:08;;;;;;;;;;;;;;;-142.75;100.00;77907.09;5012934;28;19920;-63
2022/08/09 03:52:34;;;;;;;;;;;;;;;-142.75;100.00;77918.94;5012673;28;20375;-63
2022/08/09 03:55:01;;;;;;;;;;;;;;;-142.75;100.00;77930.75;5012647;28;20363;-63
2022/08/09 03:57:26;;;;;;;;;;;;;;;-142.75;100.00;77936.66;5012307;28;20343;-63
2022/08/09 03:59:52;;;;;;;;;;;;;;;-142.75;100.00;77942.56;5012667;28;19941;-63
2022/08/09 04:02:18;;;;;;;;;;;;;;;-142.75;100.00;77940.59;5012610;28;19920;-63
2022/08/09 04:04:43;;;;;;;;;;;;;;;-142.75;100.00;77948.47;5012558;28;19924;-63
2022/08/09 04:07:08;;;;;;;;;;;;;;;-142.75;100.00;77946.50;5012188;28;19918;-63
2022/08/09 04:09:34;;;;;;;;;;;;;;;-142.75;100.00;77952.41;5012539;28;19913;-63
2022/08/09 04:11:59;;;;;;;;;;;;;;;-142.75;100.00;77976.03;5012490;28;20298;-63
2022/08/09 04:14:24;;;;;;;;;;;;;;;-142.75;100.00;77979.97;5012321;28;19918;-64
2022/08/09 04:16:49;;;;;;;;;;;;;;;-142.75;100.00;77979.97;5012188;28;19914;-63
2022/08/09 04:19:15;;;;;;;;;;;;;;;-142.75;100.00;77974.06;5012465;28;20326;-63
2022/08/09 04:21:40;;;;;;;;;;;;;;;-142.75;100.00;77979.97;5012432;28;20302;-63
2022/08/09 04:24:05;;;;;;;;;;;;;;;-142.75;100.00;77987.84;5012433;28;20370;-63
2022/08/09 04:26:30;;;;;;;;;;;;;;;-142.75;100.00;77976.03;5012141;28;19948;-63
2022/08/09 04:28:56;;;;;;;;;;;;;;;-142.75;100.00;77976.03;5012252;28;19917;-63
2022/08/09 04:31:21;;;;;;;;;;;;;;;-142.75;100.00;77993.75;5012330;28;19921;-63
2022/08/09 04:33:46;;;;;;;;;;;;;;;-142.75;100.00;78009.50;5012253;28;19925;-63
2022/08/09 04:36:11;;;;;;;;;;;;;;;-142.75;100.00;78017.38;5012062;28;19917;-63
2022/08/09 04:38:36;;;;;;;;;;;;;;;-142.75;100.00;78019.34;5012090;28;19936;-63
2022/08/09 04:41:02;;;;;;;;;;;;;;;-142.75;100.00;78005.56;5015153;28;19913;-63
2022/08/09 04:43:27;;;;;;;;;;;;;;;-142.75;100.00;77983.91;5016089;28;19914;-63
2022/08/09 04:45:52;;;;;;;;;;;;;;;-142.75;100.00;77966.19;5016114;28;19917;-63
2022/08/09 04:48:17;;;;;;;;;;;;;;;-142.75;100.00;77952.41;5015722;28;20004;-63
2022/08/09 04:50:43;;;;;;;;;;;;;;;-142.75;100.00;77950.44;5016069;28;20383;-63
2022/08/09 04:53:09;;;;;;;;;;;;;;;-142.75;100.00;77936.66;5015947;28;19924;-63
2022/08/09 04:55:35;;;;;;;;;;;;;;;-142.75;100.00;77938.63;5015831;28;20387;-63
2022/08/09 04:58:00;;;;;;;;;;;;;;;-142.75;100.00;77924.84;5015502;28;19913;-63
2022/08/09 05:00:25;;;;;;;;;;;;;;;-142.75;100.00;77915.00;5015811;28;20348;-63
2022/08/09 05:02:51;;;;;;;;;;;;;;;-142.75;100.00;77909.06;5015785;28;19914;-63
2022/08/09 05:05:16;;;;;;;;;;;;;;;-142.75;100.00;77905.13;5015682;28;19921;-63
2022/08/09 05:07:41;;;;;;;;;;;;;;;-142.75;100.00;77909.06;5015363;28;19913;-64
2022/08/09 05:10:07;;;;;;;;;;;;;;;-142.75;100.00;77885.44;5015671;28;19914;-63
2022/08/09 05:12:32;;;;;;;;;;;;;;;-142.75;100.00;77881.50;5015548;28;20363;-63
2022/08/09 05:14:57;;;;;;;;;;;;;;;-142.75;100.00;77867.72;5015523;28;19914;-64
2022/08/09 05:17:23;;;;;;;;;;;;;;;-142.75;100.00;77850.00;5015268;28;20430;-64
2022/08/09 05:19:48;;;;;;;;;;;;;;;-142.75;100.00;77853.94;5015456;28;20387;-63
2022/08/09 05:22:13;;;;;;;;;;;;;;;-142.75;100.00;77816.53;5015343;28;19914;-63
2022/08/09 05:24:39;;;;;;;;;;;;;;;-142.75;100.00;77810.63;5015279;28;19914;-63
2022/08/09 05:27:04;;;;;;;;;;;;;;;-142.75;100.00;77800.78;5014991;28;19921;-63
2022/08/09 05:29:29;;;;;;;;;;;;;;;-142.75;100.00;77777.16;5015298;28;19913;-63
2022/08/09 05:31:58;;;;;;;;;;;;;;;-142.75;100.00;77755.50;5015183;28;19913;-63
2022/08/09 05:34:26;;;;;;;;;;;;;;;-142.75;100.00;77735.81;5015058;28;19953;-63
2022/08/09 05:36:52;;;;;;;;;;;;;;;-142.75;100.00;77718.06;5014459;28;20376;-64
2022/08/09 05:39:17;;;;;;;;;;;;;;;-142.75;100.00;77694.44;5015064;28;19914;-63
2022/08/09 05:41:42;;;;;;;;;;;;;;;-142.75;100.00;77666.88;5014959;28;19913;-63
2022/08/09 05:44:08;;;;;;;;;;;;;;;-142.75;100.00;77649.16;5015020;28;19957;-63
2022/08/09 05:46:33;;;;;;;;;;;;;;;-142.75;100.00;77621.59;5014667;28;20004;-63
2022/08/09 05:48:58;;;;;;;;;;;;;;;-142.75;100.00;77592.06;5014862;28;20057;-63
2022/08/09 05:51:24;;;;;;;;;;;;;;;-142.75;100.00;77568.44;5014259;28;20012;-62
2022/08/09 05:53:49;;;;;;;;;;;;;;;-142.75;100.00;77560.56;5014747;28;19929;-63
2022/08/09 05:56:14;;;;;;;;;;;;;;;-142.75;100.00;77538.91;5014528;28;19913;-63
2022/08/09 05:58:40;;;;;;;;;;;;;;;-142.75;100.00;77515.28;5014478;28;19935;-63
2022/08/09 06:01:05;;;;;;;;;;;;;;;-142.75;100.00;77513.31;5014645;28;19921;-64
2022/08/09 06:03:30;;;;;;;;;;;;;;;-142.75;100.00;77487.72;5014595;28;19914;-63
2022/08/09 06:05:55;;;;;;;;;;;;;;;-142.75;100.00;77479.84;5014485;28;19922;-63
2022/08/09 06:08:20;;;;;;;;;;;;;;;-142.75;100.00;77464.09;5014259;28;20338;-64
2022/08/09 06:10:46;;;;;;;;;;;;;;;-142.75;100.00;77448.34;5014502;28;19913;-63
2022/08/09 06:13:12;;;;;;;;;;;;;;;-142.75;100.00;77450.28;5014452;28;19918;-63
2022/08/09 06:15:37;;;;;;;;;;;;;;;-142.75;100.00;77422.72;4996789;28;20003;-63
2022/08/09 06:18:03;;;;;;;;;;;;;;;-142.75;100.00;77434.53;5014166;28;19955;-63
2022/08/09 06:20:28;;;;;;;;;;;;;;;-142.75;100.00;77405.00;5014332;28;20363;-64
2022/08/09 06:22:53;;;;;;;;;;;;;;;-142.75;100.00;77385.31;5014619;28;19940;-63
2022/08/09 06:25:19;;;;;;;;;;;;;;;-142.75;100.00;77373.50;5014163;28;19918;-63
2022/08/09 06:27:44;;;;;;;;;;;;;;;-142.75;100.00;77367.59;5013870;28;20048;-63
2022/08/09 06:30:10;;;;;;;;;;;;;;;-142.75;100.00;77318.38;5014163;28;19921;-63
2022/08/09 06:32:35;;;;;;;;;;;;;;;-142.75;100.00;77310.50;5014040;28;19917;-63
2022/08/09 06:35:00;;;;;;;;;;;;;;;-142.75;100.00;77302.63;5013923;28;19917;-63
2022/08/09 06:37:25;;;;;;;;;;;;;;;-142.75;100.00;77269.16;5013772;28;20294;-63
2022/08/09 06:39:51;;;;;;;;;;;;;;;-142.75;100.00;77261.28;5014250;28;19957;-63
2022/08/09 06:42:17;;;;;;;;;;;;;;;-142.75;100.00;77241.59;5013908;28;19960;-63
2022/08/09 06:44:42;;;;;;;;;;;;;;;-142.75;100.00;77221.91;5013826;28;19935;-63
2022/08/09 06:47:07;;;;;;;;;;;;;;;-142.75;100.00;77194.34;5013560;28;19913;-63
2022/08/09 06:49:32;;;;;;;;;;;;;;;-142.75;100.00;77198.28;5013784;28;19983;-63
2022/08/09 06:51:57;;;;;;;;;;;;;;;-142.75;100.00;77168.75;5013740;28;19913;-63
2022/08/09 06:54:23;;;;;;;;;;;;;;;-142.75;100.00;77141.19;5014336;28;19917;-62
2022/08/09 06:56:48;;;;;;;;;;;;;;;-142.75;100.00;77125.44;5013356;28;19924;-62
2022/08/09 06:59:13;;;;;;;;;;;;;;;-142.75;100.00;77111.66;5013679;28;19913;-62
2022/08/09 07:01:38;;;;;;;;;;;;;;;-142.75;100.00;77093.94;5013450;28;20402;-63
2022/08/09 07:04:03;;;;;;;;;;;;;;;-142.75;100.00;77088.03;4996239;28;20570;-63
2022/08/09 07:06:29;;;;;;;;;;;;;;;-142.75;100.00;77080.16;5012771;28;19913;-63
2022/08/09 07:08:54;;;;;;;;;;;;;;;-142.75;100.00;77056.53;5014015;28;19913;-63
2022/08/09 07:11:19;;;;;;;;;;;;;;;-142.75;100.00;77038.81;5012350;28;19913;-63
2022/08/09 07:13:44;;;;;;;;;;;;;;;-142.75;100.00;77042.75;5012399;28;19917;-63
2022/08/09 07:16:11;;;;;;;;;;;;;;;-142.75;100.00;77017.16;5012387;28;19917;-64
2022/08/09 07:18:36;;;;;;;;;;;;;;;-142.75;100.00;76991.56;5012112;28;20375;-63
2022/08/09 07:21:01;;;;;;;;;;;;;;;-142.75;100.00;76979.75;5012303;28;19944;-63
2022/08/09 07:23:26;;;;;;;;;;;;;;;-142.75;100.00;76971.88;5012177;28;19920;-63
2022/08/09 07:25:52;;;;;;;;;;;;;;;-142.75;100.00;76956.13;5011915;28;19950;-63
2022/08/09 07:28:17;;;;;;;;;;;;;;;-142.75;100.00;76918.72;5011879;28;19921;-63
2022/08/09 07:30:42;;;;;;;;;;;;;;;-142.75;100.00;76914.78;5012038;28;20375;-63
2022/08/09 07:33:07;;;;;;;;;;;;;;;-142.75;100.00;76901.00;5012905;28;20016;-63
2022/08/09 07:35:33;;;;;;;;;;;;;;;-142.75;100.00;76914.78;5012208;28;19917;-63
2022/08/09 07:37:58;;;;;;;;;;;;;;;-142.75;100.00;76897.06;5012616;28;19921;-63
2022/08/09 07:40:23;;;;;;;;;;;;;;;-142.75;100.00;76899.03;5012819;28;19913;-64
2022/08/09 07:42:53;;;;;;;;;;;;;;;-142.75;100.00;76839.97;5012927;28;19921;-63
2022/08/09 07:45:24;;;;;;;;;;;;;;;-142.75;100.00;76855.72;5012728;28;19956;-63
2022/08/09 07:47:49;;;;;;;;;;;;;;;-142.75;100.00;76853.75;5012569;28;19949;-64
2022/08/09 07:50:15;;;;;;;;;;;;;;;-142.75;100.00;76808.50;5012775;28;19953;-64
2022/08/09 07:52:40;;;;;;;;;;;;;;;-142.75;100.00;76790.78;5012652;28;20027;-63
2022/08/09 07:55:05;;;;;;;;;;;;;;;-142.75;100.00;76778.97;5012562;28;19917;-63
2022/08/09 07:57:33;;;;;;;;;;;;;;;-142.75;100.00;76765.19;5012437;28;20380;-63
2022/08/09 07:59:58;;;;;;;;;;;;;;;-142.75;100.00;76731.72;5012728;28;19913;-63
2022/08/09 08:02:23;;;;;;;;;;;;;;;-142.75;100.00;76749.44;5012542;28;19914;-62
2022/08/09 08:04:48;;;;;;;;;;;;;;;-142.75;100.00;76778.97;5012592;28;19944;-63
2022/08/09 08:07:14;;;;;;;;;;;;;;;-142.75;100.00;76757.31;5012244;28;19921;-63
2022/08/09 08:09:39;;;;;;;;;;;;;;;-142.75;100.00;76735.66;5002876;28;19924;-63
2022/08/09 08:12:04;;;;;;;;;;;;;;;-142.75;100.00;76723.84;4992919;28;19914;-63
2022/08/09 08:14:29;;;;;;;;;;;;;;;-142.75;100.00;76690.38;4992384;28;19918;-63
2022/08/09 08:16:55;;;;;;;;;;;;;;;-142.75;100.00;76684.47;4992531;28;20009;-64
2022/08/09 08:19:20;;;;;;;;;;;;;;;-142.75;100.00;76647.06;4992854;28;19914;-63
2022/08/09 08:21:45;;;;;;;;;;;;;;;-142.75;100.00;76660.84;4992814;28;19941;-63
2022/08/09 08:24:10;;;;;;;;;;;;;;;-142.75;100.00;76684.47;4992755;28;19969;-62
2022/08/09 08:26:36;;;;;;;;;;;;;;;-142.75;100.00;76672.66;4992365;28;19976;-62
2022/08/09 08:29:01;;;;;;;;;;;;;;;-142.75;100.00;76670.69;4992710;28;19921;-63
2022/08/09 08:31:26;;;;;;;;;;;;;;;-142.75;100.00;76649.03;4992727;28;20291;-63
2022/08/09 08:33:51;;;;;;;;;;;;;;;-142.75;100.00;76652.97;4992618;28;19952;-63
2022/08/09 08:36:16;;;;;;;;;;;;;;;-142.75;100.00;76611.63;4992200;28;20016;-63
2022/08/09 08:38:43;;;;;;;;;;;;;;;-142.75;99.86;76593.91;4992373;28;19921;-63
2022/08/09 08:41:08;;;;;;;;;;;;;;;-142.75;100.00;76574.22;4992564;28;19968;-63
2022/08/09 08:43:33;;;;;;;;;;;;;;;-142.75;95.34;76554.53;4992632;28;19953;-63
2022/08/09 08:46:03;;;;;;;;;;;;;;;-142.75;99.40;76548.63;4992460;28;19913;-63
2022/08/09 08:48:28;;;;;;;;;;;;;;;-142.75;98.88;76530.91;4992114;28;20371;-64
2022/08/09 08:50:54;;;;;;;;;;;;;;;-142.75;94.06;76530.91;4992514;28;19914;-63
2022/08/09 08:53:19;;;;;;;;;;;;;;;-142.75;94.07;76503.38;4992387;28;20016;-64
2022/08/09 08:55:44;;;;;;;;;;;;;;;-142.75;89.99;76458.09;4992492;28;19921;-63
2022/08/09 08:58:10;;;;;;;;;;;;;;;-142.75;85.47;76501.41;4992261;28;19913;-63
2022/08/09 09:00:35;;;;;;;;;;;;;;;-142.75;85.33;76471.88;4992347;28;19921;-63
2022/08/09 09:03:02;;;;;;;;;;;;;;;-142.75;87.01;76471.88;4992407;28;19923;-64
2022/08/09 09:05:28;;;;;;;;;;;;;;;-142.75;80.09;76479.75;4992285;28;20434;-63
2022/08/09 09:07:54;;;;;;;;;;;;;;;-142.75;80.19;76442.34;4992038;28;20029;-63
2022/08/09 09:10:20;;;;;;;;;;;;;;;-142.75;78.26;76434.47;4992490;28;19917;-63
2022/08/09 09:12:47;;;;;;;;;;;;;;;-142.75;82.61;76420.69;4992337;28;19913;-64
2022/08/09 09:15:12;;;;;;;;;;;;;;;-142.75;78.50;76438.41;4992223;28;19918;-63
2022/08/09 09:17:38;;;;;;;;;;;;;;;-142.75;80.93;76422.66;4992095;28;19914;-63
2022/08/09 09:20:10;;;;;;;;;;;;;;;-142.75;81.39;76424.63;4992209;28;19921;-63
2022/08/09 09:22:48;;;;;;;;;;;;;;;-142.75;80.72;76432.50;4992174;28;19918;-63
2022/08/09 09:25:29;;;;;;;;;;;;;;;-142.75;79.45;76373.44;4992272;28;19936;-63
2022/08/09 09:27:54;;;;;;;;;;;;;;;-142.75;77.27;76401.00;4995569;28;19913;-64
2022/08/09 09:30:20;;;;;;;;;;;;;;;-142.75;74.01;76401.00;4995719;28;19921;-63
2022/08/09 09:32:59;;;;;;;;;;;;;;;-142.75;74.76;76432.50;4995500;28;19918;-63
2022/08/09 09:35:24;;;;;;;;;;;;;;;-142.75;74.62;76436.44;5014718;22;19928;-65
2022/08/09 09:37:51;;;;;;;;;;;;;;;-142.75;77.28;76401.00;5032607;28;20011;-64
2022/08/09 09:40:17;;;;;;;;;;;;;;;-142.75;76.28;76412.81;5033818;28;20358;-65
2022/08/09 09:42:42;;;;;;;;;;;;;;;-142.75;73.75;76391.16;5017027;28;19935;-65
2022/08/09 09:45:07;;;;;;;;;;;;;;;-142.75;74.57;76389.19;5034530;28;19913;-65
2022/08/09 09:47:33;;;;;;;;;;;;;;;-142.75;75.04;76353.78;5034255;28;19956;-65
2022/08/09 09:49:59;;;;;;;;;;;;;;;-142.75;70.90;76296.69;5034529;28;19917;-65
2022/08/09 09:52:27;;;;;;;;;;;;;;;-142.75;70.52;76273.06;5034629;28;19913;-65
2022/08/09 09:54:59;;;;;;;;;;;;;;;-142.75;70.62;76290.78;5034514;28;19913;-65
2022/08/09 09:57:24;;;;;;;;;;;;;;;-142.75;70.76;76294.72;5034332;28;19960;-65
2022/08/09 09:59:50;;;;;;;;;;;;;;;-142.75;69.78;76326.22;5034466;28;19944;-65
2022/08/09 10:02:17;;;;;;;;;;;;;;;-142.75;68.47;76282.91;5034380;28;19917;-65
2022/08/09 10:04:43;;;;;;;;;;;;;;;-142.75;66.21;76265.19;5016687;28;20342;-65
2022/08/09 10:07:24;;;;;;;;;;;;;;;-142.75;66.95;76340.00;5034046;28;19949;-65
2022/08/09 10:09:51;;;;;;;;;;;;;;;-142.75;64.39;76255.34;5034274;28;19921;-65
2022/08/09 10:12:29;;;;;;;;;;;;;;;-142.75;64.57;76275.03;5034252;28;19955;-65
2022/08/09 10:15:21;;;;;;;;;;;;;;;-142.75;66.85;76227.78;5034072;28;20398;-64
2022/08/09 10:17:48;;;;;;;;;;;;;;;-142.75;69.44;76223.84;5013099;28;20010;-65
2022/08/09 10:20:16;;;;;;;;;;;;;;;-142.75;69.25;76227.78;5034166;28;19913;-65
2022/08/09 10:22:43;;;;;;;;;;;;;;;-142.75;66.74;76192.38;5034144;28;19913;-65
2022/08/09 10:25:08;;;;;;;;;;;;;;;-142.75;65.10;76170.72;5033752;28;19914;-64
2022/08/09 10:27:35;;;;;;;;;;;;;;;-142.75;61.90;76190.41;5033657;28;19935;-65
2022/08/09 10:30:04;;;;;;;;;;;;;;;-142.75;64.07;76282.91;5033949;28;20374;-64
2022/08/09 10:32:29;;;;;;;;;;;;;;;-142.75;64.04;76286.84;5033809;28;20411;-66
2022/08/09 10:34:54;;;;;;;;;;;;;;;-142.75;64.28;76239.59;5033771;28;20033;-64
2022/08/09 10:37:20;;;;;;;;;;;;;;;-142.75;63.98;76241.56;5033276;28;19921;-65
2022/08/09 10:39:46;;;;;;;;;;;;;;;-142.75;64.53;76186.47;5033718;28;20348;-65
2022/08/09 10:42:12;;;;;;;;;;;;;;;-142.75;63.29;76194.34;5033721;28;20003;-65
2022/08/09 10:44:38;;;;;;;;;;;;;;;-142.75;62.72;76204.16;5033631;28;19913;-65
2022/08/09 10:47:12;;;;;;;;;;;;;;;-142.75;63.90;76153.00;5033190;28;20006;-65
2022/08/09 10:49:51;;;;;;;;;;;;;;;-142.75;62.68;76088.03;5033457;28;20496;-65
2022/08/09 10:52:17;;;;;;;;;;;;;;;-142.75;60.19;76044.75;5015674;28;19913;-65
2022/08/09 10:54:42;;;;;;;;;;;;;;;-142.75;61.45;76103.78;5015660;28;19920;-65
2022/08/09 10:57:09;;;;;;;;;;;;;;;-142.75;63.67;76113.63;5015414;28;19921;-65
2022/08/09 10:59:36;;;;;;;;;;;;;;;-142.75;62.21;76149.06;5033379;28;20285;-65
2022/08/09 11:02:07;;;;;;;;;;;;;;;-142.75;63.02;76093.94;5032620;28;20560;-65
2022/08/09 11:04:34;;;;;;;;;;;;;;;-142.75;60.38;76107.72;5033308;28;20378;-65
2022/08/09 11:07:02;;;;;;;;;;;;;;;-142.75;60.48;76082.13;5032861;28;19955;-66
2022/08/09 11:09:36;;;;;;;;;;;;;;;-142.75;61.68;76048.69;5033201;28;19913;-65
2022/08/09 11:12:23;;;;;;;;;;;;;;;-142.75;61.34;76013.25;5033074;28;19996;-65
2022/08/09 11:14:55;;;;;;;;;;;;;;;-142.75;58.52;76023.09;5033043;28;20375;-64
2022/08/09 11:17:21;;;;;;;;;;;;;;;-142.75;57.91;75967.97;5032717;28;19924;-65
2022/08/09 11:20:08;;;;;;;;;;;;;;;-142.75;56.76;76066.41;5033002;28;19913;-65
2022/08/09 11:22:39;;;;;;;;;;;;;;;-142.75;57.51;75997.50;5015282;28;19928;-65
2022/08/09 11:25:06;;;;;;;;;;;;;;;-142.75;58.80;75997.50;5032864;28;20275;-65
2022/08/09 11:27:37;;;;;;;;;;;;;;;-142.75;58.04;75975.84;5032484;28;19937;-66
2022/08/09 11:30:05;;;;;;;;;;;;;;;-142.75;59.17;76003.41;5032886;28;19920;-66
2022/08/09 11:32:40;;;;;;;;;;;;;;;-142.75;58.03;75967.97;5032771;28;19948;-65
2022/08/09 11:35:18;;;;;;;;;;;;;;;-142.75;58.76;75975.84;5032827;28;19991;-65
2022/08/09 11:37:47;;;;;;;;;;;;;;;-142.75;60.50;75969.94;5032394;28;19923;-65
2022/08/09 11:40:33;;;;;;;;;;;;;;;-142.75;58.23;76027.03;5032675;28;19913;-65
2022/08/09 11:42:59;;;;;;;;;;;;;;;-142.75;58.40;75932.56;5032012;28;19913;-66
2022/08/09 11:45:28;;;;;;;;;;;;;;;-142.75;58.94;75920.75;5032472;28;19920;-66
2022/08/09 11:47:59;;;;;;;;;;;;;;;-142.75;59.64;75928.63;5032190;28;19921;-65
2022/08/09 11:50:25;;;;;;;;;;;;;;;-142.75;58.95;75932.56;5032219;28;19913;-65
2022/08/09 11:52:59;;;;;;;;;;;;;;;-142.75;58.38;75958.16;5032116;28;20486;-65
2022/08/09 11:55:28;;;;;;;;;;;;;;;-142.75;56.77;75926.66;5011633;28;19913;-66
2022/08/09 11:57:53;;;;;;;;;;;;;;;-142.75;59.32;75991.59;5012205;28;19917;-65
2022/08/09 12:00:19;;;;;;;;;;;;;;;-142.75;60.10;75971.91;5012684;28;19913;-66
2022/08/09 12:02:45;;;;;;;;;;;;;;;-142.75;57.40;76030.97;5012573;28;20000;-66
2022/08/09 12:05:10;;;;;;;;;;;;;;;-142.75;58.10;75987.66;5012357;28;19949;-66
2022/08/09 12:07:35;;;;;;;;;;;;;;;-142.75;58.56;75989.63;5012275;28;20083;-66
2022/08/09 12:10:01;;;;;;;;;;;;;;;-142.75;56.44;75975.84;5012517;28;19998;-66
2022/08/09 12:12:26;;;;;;;;;;;;;;;-142.75;60.13;75952.25;4994839;28;20287;-67
2022/08/09 12:14:52;;;;;;;;;;;;;;;-142.75;58.46;75948.31;5012476;28;19971;-66
2022/08/09 12:17:17;;;;;;;;;;;;;;;-142.75;57.79;75912.88;5012112;28;20307;-67
2022/08/09 12:19:42;;;;;;;;;;;;;;;-142.75;56.27;75928.63;5012270;28;19917;-67